Главная страница
METAR-TAF:

METAR-TAF

Аэропорты :

Sindal, Дания

широта: 57-30N, долгота: 010-13E, высота над уровнем моря: 28 м

Текущие метеонаблюдения

Эта сводка был подготовлена 14 часа и 35 минут назад, в 11:50 UTC
Ветер 9 Узел от западный-юго-западный
Температура 17°C
Влажность 82%
Давление 1017 hPa
Видимость: 7000 м

METAR: EKSN 171150Z 24009KT 7000 NSC 17/14 Q1017

Время: 04:25 (02:25 UTC)

Прогноз

Эта сводка был подготовлена 17 часа и 59 минут назад, в 08:26 UTC
Прогноз действительный с 17-го 09 UTC до 17-го 14 UTC
Ветер 10 Узел от южный-юго-западный
Видимость 10 км и более
Отдельные облака на высоте 3000 фута
временами
С 17-го 09 UTC до 17-го 14 UTC
Видимость: 0800 м
Рассеянная облачность на высоте 800 фута
туман

TAF: EKSN 170826Z 1709/1714 20010KT 9999 SCT030 TEMPO 1709/1714 0800 FG BKN008

Метеонаблюдения и прогнозы для более 4000 аэропортов (сводки METAR и TAF).

Имеющиеся станции представлены на карте желтыми и красными точками.

Чтобы увидеть название станции, наведите на нее мышь.

Затем щелкните, чтобы увидеть метеонаблюдения и метеопрогнозы.

Управление картой: чтобы увеличить масштаб, щелкните зеленые кнопки с черным крестиком; чтобы уменьшить масштаб, щелкните зеленую кнопку с тире; для просмотра соседних карт щелкайте зеленые стрелки.


METAR-TAF: